• Join FlightAware (Why Join?)
  • Login
  • US Flag 
04:20AM EDT


 

Airport Tracker/Info


-or-


 

Live Flight TrackerFlight Track Log ✈ GLF55 ✈ 26-Jun-2013 ✈ KDAL - KDAL

Flight Track Log - Related Links

Times and Time Zones

All times are in EDT time to prevent confusion due to time zone crossing. See the GLF55 flight status page for this flight to view local times or setup timezone preferences in your user account.

Time Position Orientation Groundspeed Altitude Reporting Facility
EDT Latitude Longitude Course Direction KTS MPH feet Rate Location/Type
06:16PM 32.8333 -96.8167 82° East 188 216 1,700  Level Dallas / Fort Worth TRACON
06:19PM 32.8539 -96.6394 82° East 274 315 11,100 3,780 Climbing Fort Worth Center
06:20PM 32.8889 -96.5475 66° East 286 329 14,600 1,920 Climbing Fort Worth Center
06:21PM 32.9297 -96.4383 66° East 339 390 15,000 180 Climbing Fort Worth Center
06:22PM 32.9667 -96.3389 66° East 363 418 15,000  Level Fort Worth Center
06:23PM 32.9883 -96.2072 79° East 363 418 15,000  Level Fort Worth Center
06:24PM 33.0019 -96.1031 81° East 363 418 15,000 540 Level Fort Worth Center
06:25PM 33.0175 -95.9939 80° East 316 364 16,100 660 Climbing Fort Worth Center
06:26PM 33.0292 -95.9144 80° East 280 322 16,400 -60 Climbing Fort Worth Center
06:27PM 33.0383 -95.8275 83° East 240 276 16,000 -720 Descending Fort Worth Center
06:28PM 33.0461 -95.7678 81° East 205 236 15,000 180 Descending Fort Worth Center
06:29PM 33.0614 -95.6758 79° East 236 272 16,400 660 Climbing Fort Worth Center
06:30PM 33.0708 -95.5964 82° East 267 307 16,400  Level Fort Worth Center
06:31PM 33.0761 -95.5294 85° East 243 280 16,500  Climbing Fort Worth Center
06:32PM 33.0958 -95.4519 73° East 230 265 16,500  Level Fort Worth Center
06:33PM 33.1300 -95.3744 62° Northeast 230 265 16,500 -60 Level Fort Worth Center
06:34PM 33.1456 -95.3119 73° East 222 255 16,400 -540 Descending Fort Worth Center
06:35PM 33.1658 -95.2619 64° Northeast 191 220 15,500  Descending Fort Worth Center
06:36PM 33.1875 -95.1944 69° East 190 219 16,500 360 Climbing Fort Worth Center
06:37PM 33.2031 -95.1294 74° East 203 234 16,300 -540 Descending Fort Worth Center
06:38PM 33.2189 -95.0794 69° East 185 213 15,500 60 Descending Fort Worth Center
06:39PM 33.2364 -95.0144 72° East 184 212 16,500 60 Climbing Fort Worth Center
06:40PM 33.2542 -94.9642 67° East 184 212 15,700 -480 Descending Fort Worth Center
06:41PM 33.2758 -94.8964 69° East 187 215 15,600 -900 Descending Fort Worth Center
06:42PM 33.3225 -94.8306 50° Northeast 224 258 13,900 -1,740 Descending Fort Worth Center